createdAt,value
2023-02-21T00:02:16.451Z,11.85
2023-02-21T00:05:07.204Z,12.73
2023-02-21T00:07:57.715Z,12.52
2023-02-21T00:10:47.778Z,12.48
2023-02-21T00:13:38.211Z,12.00
2023-02-21T00:16:33.648Z,13.82
2023-02-21T00:19:24.592Z,14.07
2023-02-21T00:22:15.080Z,14.18
2023-02-21T00:25:05.586Z,12.75
2023-02-21T00:27:55.985Z,13.50
2023-02-21T00:30:46.465Z,13.18
2023-02-21T00:33:38.185Z,13.38
2023-02-21T00:36:28.394Z,13.32
2023-02-21T00:39:18.680Z,13.48
2023-02-21T00:42:09.333Z,14.82
2023-02-21T00:44:59.898Z,15.13
2023-02-21T00:47:50.251Z,13.90
2023-02-21T00:50:42.188Z,15.00
2023-02-21T00:53:32.930Z,14.85
2023-02-21T00:56:24.030Z,15.38
2023-02-21T00:59:14.564Z,15.20
2023-02-21T01:02:05.689Z,16.63
2023-02-21T01:04:56.127Z,18.50
2023-02-21T01:07:47.861Z,16.02
2023-02-21T01:10:38.409Z,16.77
2023-02-21T01:13:29.578Z,16.15
2023-02-21T01:16:20.352Z,17.05
2023-02-21T01:19:10.774Z,16.65
2023-02-21T01:22:01.272Z,16.88
2023-02-21T01:24:53.037Z,16.83
2023-02-21T01:27:44.030Z,18.20
2023-02-21T01:30:34.693Z,17.75
2023-02-21T01:33:25.573Z,16.55
2023-02-21T01:36:15.982Z,16.75
2023-02-21T01:39:06.483Z,17.17
2023-02-21T01:41:58.397Z,16.40
2023-02-21T01:45:00.199Z,20.40
2023-02-21T01:47:51.232Z,16.23
2023-02-21T01:50:45.286Z,18.63
2023-02-21T01:53:40.294Z,18.17
2023-02-21T01:56:31.965Z,17.70
2023-02-21T01:59:23.714Z,17.27
2023-02-21T02:02:20.462Z,20.08
2023-02-21T02:05:11.481Z,17.30
2023-02-21T02:08:02.159Z,20.10
2023-02-21T02:10:52.780Z,19.98
2023-02-21T02:13:37.801Z,18.25
2023-02-21T02:16:17.552Z,19.30
2023-02-21T02:19:08.521Z,20.60
2023-02-21T02:22:13.678Z,19.75
2023-02-21T02:25:19.424Z,19.10
2023-02-21T02:28:07.462Z,21.92
2023-02-21T02:31:17.317Z,21.65
2023-02-21T02:34:23.525Z,19.67
2023-02-21T02:37:06.699Z,21.92
2023-02-21T02:42:31.736Z,24.08
2023-02-21T02:45:10.010Z,23.52
2023-02-21T02:47:46.628Z,21.77
2023-02-21T02:50:22.365Z,22.17
2023-02-21T02:53:03.452Z,22.40
2023-02-21T02:55:42.978Z,22.65
2023-02-21T02:58:17.237Z,24.20
2023-02-21T03:01:01.791Z,24.55
2023-02-21T03:03:52.530Z,23.35
2023-02-21T03:06:34.866Z,23.23
2023-02-21T03:09:15.718Z,22.13
2023-02-21T03:11:57.868Z,24.25
2023-02-21T03:14:36.242Z,23.83
2023-02-21T03:17:12.984Z,25.10
2023-02-21T03:19:48.338Z,24.67
2023-02-21T03:22:26.757Z,24.08
2023-02-21T03:25:03.698Z,23.17
2023-02-21T03:27:40.322Z,24.25
2023-02-21T03:30:20.901Z,23.75
2023-02-21T03:32:56.961Z,23.27
2023-02-21T03:35:31.533Z,25.30
2023-02-21T03:38:05.563Z,24.75
2023-02-21T03:40:40.105Z,24.88
2023-02-21T03:43:12.784Z,24.25
2023-02-21T03:46:00.000Z,25.50
2023-02-21T03:48:35.081Z,25.35
2023-02-21T03:51:16.379Z,24.98
2023-02-21T03:53:49.344Z,24.92
2023-02-21T03:56:33.445Z,24.63
2023-02-21T03:59:22.456Z,24.13
2023-02-21T04:04:29.438Z,24.17
2023-02-21T04:07:12.646Z,23.77
2023-02-21T04:09:46.123Z,24.40
2023-02-21T04:12:23.952Z,23.95
2023-02-21T04:14:58.670Z,25.90
2023-02-21T04:17:31.710Z,24.08
2023-02-21T04:20:06.390Z,23.65
2023-02-21T04:22:45.742Z,24.00
2023-02-21T04:25:20.736Z,25.25
2023-02-21T04:28:01.455Z,24.65
2023-02-21T04:30:34.165Z,24.65
2023-02-21T04:33:06.997Z,25.38
2023-02-21T04:35:40.126Z,24.55
2023-02-21T04:38:20.451Z,23.80
2023-02-21T04:43:27.817Z,24.63
2023-02-21T04:46:00.887Z,24.02
2023-02-21T04:48:33.726Z,27.05
2023-02-21T04:53:49.451Z,25.38
2023-02-21T04:56:23.829Z,23.92
2023-02-21T04:58:58.080Z,25.15
2023-02-21T05:01:32.138Z,25.35
2023-02-21T05:04:06.397Z,25.30
2023-02-21T05:06:39.146Z,23.60
2023-02-21T05:09:12.309Z,25.52
2023-02-21T05:11:45.234Z,24.45
2023-02-21T05:16:52.203Z,24.30
2023-02-21T05:19:28.252Z,23.80
2023-02-21T05:22:03.603Z,25.15
2023-02-21T05:24:43.364Z,24.45
2023-02-21T05:27:17.369Z,25.98
2023-02-21T05:29:52.802Z,25.42
2023-02-21T05:32:29.557Z,23.55
2023-02-21T05:35:02.420Z,24.75
2023-02-21T05:40:12.099Z,24.70
2023-02-21T05:42:44.995Z,25.13
2023-02-21T05:45:19.891Z,26.40
2023-02-21T05:47:56.264Z,23.77
2023-02-21T05:50:29.639Z,25.73
2023-02-21T05:53:02.997Z,23.95
2023-02-21T05:55:35.768Z,27.85
2023-02-21T05:58:08.513Z,27.08
2023-02-21T06:00:42.874Z,25.73
2023-02-21T06:03:15.649Z,24.40
2023-02-21T06:08:21.082Z,25.50
2023-02-21T06:10:53.860Z,25.67
2023-02-21T06:13:26.586Z,23.88
2023-02-21T06:16:00.653Z,26.27
2023-02-21T06:18:33.566Z,25.48
2023-02-21T06:21:06.837Z,25.55
2023-02-21T06:23:39.507Z,24.58
2023-02-21T06:26:12.744Z,25.38
2023-02-21T06:28:45.568Z,23.50
2023-02-21T06:31:20.835Z,24.60
2023-02-21T06:33:53.766Z,23.70
2023-02-21T06:36:29.210Z,25.15
2023-02-21T06:39:01.930Z,23.55
2023-02-21T06:41:34.839Z,25.27
2023-02-21T06:44:07.510Z,24.45
2023-02-21T06:46:41.768Z,23.92
2023-02-21T06:49:14.506Z,22.98
2023-02-21T06:51:48.662Z,24.48
2023-02-21T06:54:21.670Z,23.60
2023-02-21T06:56:54.454Z,24.70
2023-02-21T06:59:27.189Z,22.85
2023-02-21T07:02:02.870Z,24.52
2023-02-21T07:04:35.574Z,23.65
2023-02-21T07:09:41.326Z,21.73
2023-02-21T07:14:46.779Z,21.33
2023-02-21T07:17:20.930Z,21.73
2023-02-21T07:19:53.717Z,22.38
2023-02-21T07:22:27.012Z,21.23
2023-02-21T07:24:59.809Z,21.25
2023-02-21T07:30:07.778Z,21.45
2023-02-21T07:32:42.100Z,22.85
2023-02-21T07:35:15.308Z,21.77
2023-02-21T07:37:48.377Z,21.20
2023-02-21T07:40:21.141Z,21.52
2023-02-21T07:42:54.002Z,20.63
2023-02-21T07:45:26.740Z,21.50
2023-02-21T07:48:00.754Z,20.55
2023-02-21T07:50:33.465Z,20.83
2023-02-21T07:53:06.215Z,23.17
2023-02-21T07:55:39.032Z,21.67
2023-02-21T07:58:11.783Z,22.48
2023-02-21T08:00:44.630Z,20.05
2023-02-21T08:03:19.589Z,22.00
2023-02-21T08:05:52.433Z,22.02
2023-02-21T08:10:57.932Z,20.37
2023-02-21T08:13:30.898Z,20.77
2023-02-21T08:16:03.876Z,22.38
2023-02-21T08:21:11.777Z,21.63
2023-02-21T08:23:45.793Z,21.15
2023-02-21T08:26:18.567Z,24.45
2023-02-21T08:31:24.022Z,20.60
2023-02-21T08:33:58.325Z,23.25
2023-02-21T08:36:34.419Z,20.75
2023-02-21T08:39:08.360Z,23.50
2023-02-21T08:41:43.472Z,23.20
2023-02-21T08:44:18.394Z,25.42
2023-02-21T08:46:51.278Z,23.30
2023-02-21T08:49:25.528Z,23.77
2023-02-21T08:51:58.332Z,22.42
2023-02-21T08:54:31.180Z,23.75
2023-02-21T08:57:03.950Z,26.00
2023-02-21T08:59:38.635Z,26.08
2023-02-21T09:02:17.290Z,25.63
2023-02-21T09:04:52.525Z,26.35
2023-02-21T09:07:25.250Z,26.10
2023-02-21T09:09:59.563Z,23.38
2023-02-21T09:12:33.905Z,24.33
2023-02-21T09:15:07.729Z,26.38
2023-02-21T09:17:40.458Z,25.65
2023-02-21T09:20:17.797Z,24.27
2023-02-21T09:22:51.106Z,24.00
2023-02-21T09:25:26.068Z,26.52
2023-02-21T09:28:00.423Z,25.52
2023-02-21T09:30:33.277Z,24.55
2023-02-21T09:35:40.260Z,19.97
2023-02-21T09:38:13.023Z,25.13
2023-02-21T09:40:50.361Z,27.13
2023-02-21T09:43:32.532Z,26.70
2023-02-21T09:46:10.015Z,26.07
2023-02-21T09:48:45.152Z,25.58
2023-02-21T09:51:19.333Z,25.98
2023-02-21T09:53:56.785Z,25.33
2023-02-21T09:56:34.107Z,25.55
2023-02-21T09:59:14.122Z,25.10
2023-02-21T10:01:57.380Z,25.15
2023-02-21T10:04:42.347Z,25.35
2023-02-21T10:07:23.006Z,23.85
2023-02-21T10:10:05.894Z,25.08
2023-02-21T10:12:45.634Z,25.42
2023-02-21T10:15:32.239Z,26.25
2023-02-21T10:18:10.271Z,26.23
2023-02-21T10:20:48.398Z,24.80
2023-02-21T10:23:26.580Z,24.85
2023-02-21T10:26:07.326Z,22.92
2023-02-21T10:28:40.846Z,25.65
2023-02-21T10:31:19.323Z,24.42
2023-02-21T10:33:52.471Z,24.48
2023-02-21T10:36:25.207Z,21.90
2023-02-21T10:39:05.289Z,23.33
2023-02-21T10:41:41.020Z,23.95
2023-02-21T10:44:18.676Z,21.33
2023-02-21T10:46:59.650Z,22.25
2023-02-21T10:49:40.452Z,21.25
2023-02-21T10:52:16.420Z,23.27
2023-02-21T10:55:03.414Z,20.80
2023-02-21T10:57:42.106Z,19.02
2023-02-21T11:00:25.186Z,20.85
2023-02-21T11:03:03.560Z,20.35
2023-02-21T11:05:39.125Z,20.23
2023-02-21T11:08:13.261Z,20.13
2023-02-21T11:10:47.521Z,17.90
2023-02-21T11:13:22.877Z,18.25
2023-02-21T11:16:11.496Z,18.15
2023-02-21T11:18:44.413Z,17.92
2023-02-21T11:24:02.711Z,18.90
2023-02-21T11:26:45.473Z,16.98
2023-02-21T11:29:24.086Z,17.38
2023-02-21T11:31:57.659Z,16.40
2023-02-21T11:34:31.200Z,17.85
2023-02-21T11:37:05.465Z,17.17
2023-02-21T11:39:38.967Z,17.58
2023-02-21T11:42:28.953Z,17.88
2023-02-21T11:45:18.802Z,18.35
2023-02-21T11:47:59.028Z,18.08
2023-02-21T11:50:37.384Z,18.52
2023-02-21T11:53:20.919Z,18.52
2023-02-21T11:56:02.512Z,18.40
2023-02-21T11:58:45.546Z,17.67
2023-02-21T12:01:27.382Z,18.60
2023-02-21T12:04:19.122Z,18.15
2023-02-21T12:07:00.955Z,17.40
2023-02-21T12:09:44.306Z,16.75
2023-02-21T12:12:30.218Z,16.92
2023-02-21T12:15:23.537Z,16.45
2023-02-21T12:18:10.208Z,16.35
2023-02-21T12:21:09.060Z,16.15
2023-02-21T12:23:50.462Z,16.30
2023-02-21T12:26:35.581Z,16.58
2023-02-21T12:29:23.429Z,15.50
2023-02-21T12:32:23.373Z,15.32
2023-02-21T12:35:15.553Z,17.02
2023-02-21T12:37:55.812Z,14.45
2023-02-21T12:40:31.215Z,14.50
2023-02-21T12:43:19.972Z,15.43
2023-02-21T12:46:02.840Z,13.23
2023-02-21T12:48:42.342Z,13.55
2023-02-21T12:51:19.229Z,13.07
2023-02-21T12:53:55.947Z,12.98
2023-02-21T12:56:34.648Z,12.63
2023-02-21T12:59:12.845Z,12.43
2023-02-21T13:01:50.329Z,13.55
2023-02-21T13:04:33.039Z,11.98
2023-02-21T13:07:25.639Z,11.30
2023-02-21T13:10:03.775Z,10.00
2023-02-21T13:12:41.810Z,10.48
2023-02-21T13:15:20.511Z,10.82
2023-02-21T13:17:59.871Z,9.55
2023-02-21T13:20:38.496Z,9.55
2023-02-21T13:23:31.384Z,8.73
2023-02-21T13:26:41.457Z,9.02
2023-02-21T13:29:20.358Z,8.23
2023-02-21T13:32:01.226Z,7.75
2023-02-21T13:34:39.193Z,8.95
2023-02-21T13:37:19.569Z,8.32
2023-02-21T13:39:54.975Z,9.13
2023-02-21T13:42:30.989Z,9.40
2023-02-21T13:45:17.252Z,10.48
2023-02-21T13:48:26.762Z,13.10
2023-02-21T13:51:00.819Z,15.40
2023-02-21T13:54:09.027Z,16.75
2023-02-21T13:56:43.466Z,16.83
2023-02-21T13:59:34.833Z,17.58
2023-02-21T14:02:32.844Z,18.23
2023-02-21T14:05:08.856Z,18.90
2023-02-21T14:07:45.118Z,19.83
2023-02-21T14:10:26.120Z,18.45
2023-02-21T14:13:03.946Z,17.58
2023-02-21T14:15:38.778Z,18.88
2023-02-21T14:18:26.520Z,15.98
2023-02-21T14:21:00.672Z,17.40
2023-02-21T14:23:42.637Z,16.50
2023-02-21T14:26:43.981Z,17.98
2023-02-21T14:29:33.789Z,17.38
2023-02-21T14:32:29.299Z,17.48
2023-02-21T14:35:03.769Z,17.83
2023-02-21T14:37:39.887Z,19.02
2023-02-21T14:40:27.763Z,17.27
2023-02-21T14:43:32.972Z,18.98
2023-02-21T14:46:30.658Z,19.27
2023-02-21T14:49:29.474Z,19.88
2023-02-21T14:52:26.324Z,19.75
2023-02-21T14:55:30.200Z,20.67
2023-02-21T14:58:39.019Z,19.27
2023-02-21T15:01:25.715Z,21.13
2023-02-21T15:04:05.500Z,21.83
2023-02-21T15:06:43.208Z,25.13
2023-02-21T15:09:21.594Z,25.95
2023-02-21T15:11:55.292Z,25.95
2023-02-21T15:14:33.374Z,23.92
2023-02-21T15:17:14.076Z,25.90
2023-02-21T15:19:46.819Z,27.35
2023-02-21T15:22:25.164Z,27.05
2023-02-21T15:25:14.754Z,26.35
2023-02-21T15:27:59.761Z,26.20
2023-02-21T15:30:40.324Z,27.27
2023-02-21T15:33:17.150Z,26.40
2023-02-21T15:35:52.339Z,27.48
2023-02-21T15:38:30.831Z,26.55
2023-02-21T15:41:09.099Z,26.70
2023-02-21T15:43:50.443Z,27.30
2023-02-21T15:46:28.312Z,26.83
2023-02-21T15:49:04.906Z,25.10
2023-02-21T15:51:39.147Z,26.02
2023-02-21T15:54:28.160Z,25.50
2023-02-21T15:57:09.239Z,25.42
2023-02-21T15:59:42.513Z,25.38
2023-02-21T16:04:52.561Z,27.02
2023-02-21T16:07:37.481Z,30.25
2023-02-21T16:10:15.386Z,27.02
2023-02-21T16:12:56.510Z,27.65
2023-02-21T16:15:32.041Z,26.92
2023-02-21T16:18:08.552Z,27.38
2023-02-21T16:20:43.760Z,27.98
2023-02-21T16:23:26.275Z,28.83
2023-02-21T16:26:02.213Z,29.30
2023-02-21T16:28:35.179Z,26.48
2023-02-21T16:33:43.208Z,27.60
2023-02-21T16:36:21.486Z,28.27
2023-02-21T16:38:54.933Z,27.00
2023-02-21T16:41:27.912Z,29.13
2023-02-21T16:46:35.439Z,28.10
2023-02-21T16:51:43.941Z,30.58
2023-02-21T16:54:17.418Z,30.55
2023-02-21T16:56:52.898Z,31.27
2023-02-21T16:59:26.110Z,28.38
2023-02-21T17:01:59.017Z,28.98
2023-02-21T17:07:09.629Z,29.52
2023-02-21T17:09:42.793Z,29.10
2023-02-21T17:12:15.974Z,30.63
2023-02-21T17:17:21.343Z,30.53
2023-02-21T17:19:55.863Z,31.35
2023-02-21T17:22:28.689Z,29.58
2023-02-21T17:25:01.945Z,33.67
2023-02-21T17:27:34.789Z,31.33
2023-02-21T17:30:08.377Z,33.28
2023-02-21T17:32:41.199Z,31.70
2023-02-21T17:35:16.386Z,30.42
2023-02-21T17:37:50.575Z,31.08
2023-02-21T17:40:25.296Z,32.33
2023-02-21T17:42:58.707Z,31.83
2023-02-21T17:45:31.434Z,30.80
2023-02-21T17:48:05.976Z,31.58
2023-02-21T17:50:40.197Z,29.98
2023-02-21T17:53:12.976Z,29.48
2023-02-21T17:58:18.481Z,29.63
2023-02-21T18:00:51.815Z,29.30
2023-02-21T18:03:24.712Z,29.35
2023-02-21T18:08:32.710Z,28.75
2023-02-21T18:11:05.870Z,27.80
2023-02-21T18:13:38.794Z,26.88
2023-02-21T18:18:45.217Z,27.50
2023-02-21T18:21:22.613Z,27.70
2023-02-21T18:23:55.501Z,26.48
2023-02-21T18:26:28.221Z,25.00
2023-02-21T18:29:00.875Z,25.00
2023-02-21T18:31:34.899Z,27.08
2023-02-21T18:34:07.799Z,25.65
2023-02-21T18:39:21.894Z,25.05
2023-02-21T18:41:54.651Z,24.38
2023-02-21T18:44:27.424Z,25.55
2023-02-21T18:47:01.364Z,24.55
2023-02-21T18:49:38.743Z,24.85
2023-02-21T18:52:13.511Z,26.08
2023-02-21T18:54:47.175Z,24.67
2023-02-21T18:57:21.609Z,24.45
2023-02-21T18:59:54.322Z,25.92
2023-02-21T19:05:00.115Z,24.10
2023-02-21T19:07:36.436Z,23.20
2023-02-21T19:10:10.846Z,22.30
2023-02-21T19:12:43.759Z,24.50
2023-02-21T19:15:17.148Z,22.67
2023-02-21T19:17:49.981Z,23.60
2023-02-21T19:20:22.789Z,23.05
2023-02-21T19:22:57.086Z,23.75
2023-02-21T19:25:30.998Z,21.17
2023-02-21T19:28:06.758Z,23.17
2023-02-21T19:30:39.655Z,24.88
2023-02-21T19:33:12.443Z,23.50
2023-02-21T19:35:45.751Z,21.92
2023-02-21T19:38:19.896Z,22.80
2023-02-21T19:40:52.621Z,21.65
2023-02-21T19:43:25.369Z,21.08
2023-02-21T19:45:58.019Z,21.73
2023-02-21T19:48:30.875Z,22.85
2023-02-21T19:51:03.808Z,22.98
2023-02-21T19:53:37.840Z,20.77
2023-02-21T19:56:10.649Z,22.92
2023-02-21T19:58:45.167Z,21.83
2023-02-21T20:01:18.444Z,22.65
2023-02-21T20:03:52.424Z,22.38
2023-02-21T20:06:27.794Z,22.83
2023-02-21T20:09:02.567Z,24.80
2023-02-21T20:11:36.021Z,23.00
2023-02-21T20:14:09.496Z,22.60
2023-02-21T20:16:44.217Z,24.15
2023-02-21T20:19:17.058Z,25.05
2023-02-21T20:21:51.780Z,23.50
2023-02-21T20:24:25.866Z,24.95
2023-02-21T20:26:58.656Z,24.38
2023-02-21T20:29:31.417Z,22.77
2023-02-21T20:32:06.858Z,22.13
2023-02-21T20:34:40.268Z,24.00
2023-02-21T20:37:14.398Z,22.20
2023-02-21T20:39:49.761Z,22.67
2023-02-21T20:42:22.788Z,23.50
2023-02-21T20:44:55.774Z,24.80
2023-02-21T20:52:35.352Z,24.60
2023-02-21T20:55:09.956Z,23.65
2023-02-21T20:57:42.957Z,24.80
2023-02-21T21:00:18.488Z,25.17
2023-02-21T21:02:51.434Z,25.52
